Time;durP1;ratioP1;P1;durP2;ratioP2;P2;SDS_P1;SDS_P2;PMS_P1;PMS_P2;Temp;Humidity;BMP_temperature;BMP_pressure;BME280_temperature;BME280_humidity;BME280_pressure;Samples;Min_cycle;Max_cycle;Signal;HPM_P1;HPM_P2
2022/12/02 00:02:33;;;;;;;0.10;0.10;;;3.60;99.90;;;3.44;100.00;100651.16;5007513;28;20243;-78
2022/12/02 00:05:20;;;;;;;0.40;0.40;;;3.70;99.90;;;3.43;100.00;100644.13;5008222;28;20237;-78
2022/12/02 00:07:48;;;;;;;0.10;0.10;;;3.50;99.90;;;3.46;100.00;100647.78;5006371;28;20318;-78
2022/12/02 00:10:33;;;;;;;0.20;0.20;;;3.80;99.90;;;3.45;100.00;100642.47;5007799;28;20231;-78
2022/12/02 00:13:24;;;;;;;0.10;0.10;;;3.60;99.90;;;3.46;100.00;100647.78;5009633;28;20227;-78
2022/12/02 00:15:58;;;;;;;0.63;0.63;;;3.60;99.90;;;3.45;100.00;100640.75;5023552;28;20259;-78
2022/12/02 00:18:27;;;;;;;0.10;0.10;;;3.60;99.90;;;3.47;100.00;100643.44;5004025;28;20241;-78
2022/12/02 00:20:55;;;;;;;0.10;0.10;;;3.60;99.90;;;3.47;100.00;100636.47;4998664;28;20232;-78
2022/12/02 00:23:22;;;;;;;0.10;0.10;;;3.70;99.90;;;3.45;100.00;100642.47;5003398;28;20236;-78
2022/12/02 00:25:52;;;;;;;0.35;0.35;;;3.60;99.90;;;3.47;100.00;100638.22;5006220;28;20318;-78
2022/12/02 00:28:20;;;;;;;0.20;0.20;;;3.60;99.90;;;3.49;100.00;100631.31;4988998;28;20232;-78
2022/12/02 00:30:47;;;;;;;0.17;0.17;;;3.70;99.90;;;3.49;100.00;100626.97;4996044;28;20237;-78
2022/12/02 00:33:17;;;;;;;0.10;0.10;;;;;;;3.47;100.00;100620.81;4998640;28;20255;-78
2022/12/02 00:35:44;;;;;;;0.20;0.20;;;3.60;99.90;;;3.44;100.00;100618.06;5005852;28;20336;-78
2022/12/02 00:38:11;;;;;;;0.10;0.10;;;3.60;99.90;;;3.49;100.00;100624.38;5006759;28;20314;-78
2022/12/02 00:40:38;;;;;;;0.10;0.10;;;3.60;99.90;;;3.48;100.00;100613.84;4997053;28;20323;-78
2022/12/02 00:46:48;;;;;;;0.20;0.20;;;3.70;99.90;;;3.47;100.00;100609.44;4986467;28;20252;-78
2022/12/02 00:48:55;;;;;;;1.10;1.10;;;3.70;99.90;;;3.48;100.00;100613.84;4996106;28;20283;-78
2022/12/02 00:51:22;;;;;;;0.90;0.90;;;3.60;99.90;;;3.46;100.00;100613.78;5006686;28;20738;-78
2022/12/02 00:53:49;;;;;;;0.20;0.20;;;3.60;99.90;;;3.48;100.00;100612.13;5006569;28;20223;-78
2022/12/02 00:56:16;;;;;;;0.25;0.25;;;3.60;99.90;;;3.48;100.00;100606.91;5007682;28;20243;-78
2022/12/02 00:58:43;;;;;;;0.10;0.10;;;3.60;99.90;;;3.44;100.00;100597.16;5002297;28;20314;-78
2022/12/02 01:01:11;;;;;;;1.45;0.55;;;3.60;99.90;;;3.46;100.00;100602.44;5001662;28;20314;-78
2022/12/02 01:03:39;;;;;;;0.10;0.10;;;3.60;99.90;;;3.45;100.00;100598.03;5007006;28;20228;-78
2022/12/02 01:06:12;;;;;;;0.10;0.10;;;3.60;99.90;;;3.43;100.00;100595.34;5006997;28;20877;-78
2022/12/02 01:08:39;;;;;;;0.10;0.10;;;3.60;99.90;;;3.45;100.00;100595.41;4996461;28;20247;-78
2022/12/02 01:11:07;;;;;;;0.10;0.10;;;3.60;99.90;;;3.46;100.00;100603.31;5003432;28;20227;-78
2022/12/02 01:13:34;;;;;;;0.30;0.30;;;3.60;99.90;;;3.45;100.00;100598.94;5006672;28;20252;-78
2022/12/02 01:16:01;;;;;;;0.20;0.20;;;3.60;99.90;;;3.43;100.00;100594.47;5012463;28;20235;-78
2022/12/02 01:18:29;;;;;;;0.20;0.20;;;3.60;99.90;;;3.44;100.00;100597.16;5012215;28;20234;-78
2022/12/02 01:20:55;;;;;;;0.40;0.40;;;3.60;99.90;;;3.42;100.00;100596.19;5008580;28;20228;-78
2022/12/02 01:23:23;;;;;;;0.30;0.30;;;3.60;99.90;;;3.44;100.00;100598.88;5003130;28;20228;-78
2022/12/02 01:25:50;;;;;;;0.10;0.10;;;3.60;99.90;;;3.41;100.00;100591.78;5001094;28;20294;-78
2022/12/02 01:28:18;;;;;;;0.10;0.10;;;3.50;99.90;;;3.41;100.00;100597.03;5003954;28;20311;-78
2022/12/02 01:30:45;;;;;;;0.20;0.20;;;3.60;99.90;;;3.41;100.00;100596.13;5010465;28;20666;-78
2022/12/02 01:33:12;;;;;;;0.10;0.10;;;3.60;99.90;;;3.41;100.00;100589.19;5002942;28;20232;-78
2022/12/02 01:35:39;;;;;;;0.40;0.40;;;3.60;99.90;;;3.40;100.00;100591.72;5009868;28;20322;-78
2022/12/02 01:38:07;;;;;;;0.10;0.10;;;;;;;3.38;100.00;100589.06;5007305;28;20599;-78
2022/12/02 01:40:34;;;;;;;0.10;0.10;;;3.50;99.90;;;3.40;100.00;100586.50;5006457;28;20319;-78
2022/12/02 01:43:01;;;;;;;0.10;0.10;;;3.60;99.90;;;3.39;100.00;100584.72;5009134;28;20228;-78
2022/12/02 01:45:30;;;;;;;0.10;0.10;;;3.60;99.90;;;3.41;100.00;100586.56;5007663;28;20241;-78
2022/12/02 01:48:00;;;;;;;0.65;0.65;;;3.60;99.90;;;3.37;100.00;100595.13;5009239;28;20227;-78
2022/12/02 01:50:28;;;;;;;0.10;0.10;;;3.50;99.90;;;3.37;100.00;100583.75;5012517;28;20255;-78
2022/12/02 01:52:55;;;;;;;0.10;0.10;;;3.50;99.90;;;3.37;100.00;100589.00;5010011;28;20703;-78
2022/12/02 01:55:27;;;;;;;0.40;0.40;;;3.60;99.90;;;3.37;100.00;100584.66;5010600;28;20247;-78
2022/12/02 01:57:56;;;;;;;0.70;0.70;;;3.50;99.90;;;3.38;100.00;100590.78;5010376;28;20819;-78
2022/12/02 02:00:24;;;;;;;0.10;0.10;;;3.60;99.90;;;3.38;100.00;100593.41;5006797;28;20327;-78
2022/12/02 02:02:51;;;;;;;0.10;0.10;;;3.50;99.90;;;3.38;100.00;100582.94;4999709;28;20316;-78
2022/12/02 02:05:28;;;;;;;0.63;0.63;;;3.50;99.90;;;3.36;100.00;100584.59;5003297;28;20227;-78
2022/12/02 02:08:07;;;;;;;0.10;0.10;;;3.50;99.90;;;3.35;100.00;100588.03;5008635;28;20302;-78
2022/12/02 02:10:36;;;;;;;0.10;0.10;;;3.50;99.90;;;3.37;100.00;100583.75;5006414;28;20240;-78
2022/12/02 02:13:05;;;;;;;0.10;0.10;;;3.50;99.90;;;3.33;100.00;100585.38;5003332;28;20255;-78
2022/12/02 02:15:32;;;;;;;0.10;0.10;;;3.50;99.90;;;3.35;100.00;100588.94;5005158;28;20267;-79
2022/12/02 02:18:00;;;;;;;0.10;0.10;;;3.50;99.90;;;3.33;100.00;100585.38;5002432;28;20248;-78
2022/12/02 02:20:32;;;;;;;0.10;0.10;;;3.60;99.90;;;3.35;100.00;100593.28;5008804;28;20235;-78
2022/12/02 02:23:05;;;;;;;0.10;0.10;;;3.60;99.90;;;3.31;100.00;100578.28;5007842;28;20251;-78
2022/12/02 02:25:43;;;;;;;0.10;0.10;;;3.50;99.90;;;3.32;100.00;100583.59;5009556;28;20331;-78
2022/12/02 02:28:11;;;;;;;2.08;1.00;;;3.60;99.90;;;3.30;100.00;100573.91;4999778;28;20228;-78
2022/12/02 02:30:39;;;;;;;0.10;0.10;;;3.50;99.90;;;3.31;100.00;100578.28;5008833;28;20253;-78
2022/12/02 02:33:09;;;;;;;0.10;0.10;;;3.60;99.90;;;3.30;100.00;100572.19;5016420;28;20687;-78
2022/12/02 02:35:38;;;;;;;0.73;0.73;;;3.50;99.90;;;3.31;100.00;100571.34;5006452;28;20267;-78
2022/12/02 02:38:08;;;;;;;0.10;0.10;;;3.50;99.90;;;3.29;100.00;100573.00;5008798;28;20266;-78
2022/12/02 02:40:37;;;;;;;0.10;0.10;;;3.50;99.90;;;3.35;100.00;100578.47;5009001;28;20318;-78
2022/12/02 02:43:05;;;;;;;0.20;0.20;;;3.60;99.90;;;3.29;100.00;100566.88;5007362;28;20263;-78
2022/12/02 02:45:36;;;;;;;0.15;0.15;;;3.40;99.90;;;3.25;100.00;100559.75;5009348;28;20290;-78
2022/12/02 02:48:06;;;;;;;0.10;0.10;;;3.40;99.90;;;3.28;100.00;100566.00;5010190;28;20231;-79
2022/12/02 02:50:34;;;;;;;0.10;0.10;;;3.50;99.90;;;3.30;100.00;100568.66;5008011;28;20231;-78
2022/12/02 02:53:01;;;;;;;0.10;0.10;;;3.40;99.90;;;3.28;100.00;100558.16;5008890;28;20394;-78
2022/12/02 02:55:31;;;;;;;0.10;0.10;;;3.50;99.90;;;3.27;100.00;100558.09;5021534;28;20327;-78
2022/12/02 02:58:13;;;;;;;0.20;0.20;;;3.40;99.90;;;3.26;100.00;100556.31;5009084;28;20622;-78
2022/12/02 03:00:53;;;;;;;0.10;0.10;;;3.40;99.90;;;3.29;100.00;100556.44;5005430;28;20223;-78
2022/12/02 03:03:25;;;;;;;0.10;0.10;;;3.50;99.90;;;3.26;100.00;100549.38;5005125;28;20315;-78
2022/12/02 03:05:54;;;;;;;0.13;0.13;;;3.50;99.90;;;3.28;100.00;100559.88;5005413;28;20259;-78
2022/12/02 03:08:22;;;;;;;0.17;0.17;;;3.40;99.90;;;3.24;100.00;100553.63;4996077;28;20310;-78
2022/12/02 03:10:52;;;;;;;0.10;0.10;;;3.50;99.90;;;3.24;100.00;100551.03;5005210;28;20262;-78
2022/12/02 03:13:20;;;;;;;1.17;1.05;;;3.40;99.90;;;3.24;100.00;100552.75;5007510;28;20959;-78
2022/12/02 03:15:47;;;;;;;0.28;0.28;;;3.40;99.90;;;3.25;100.00;100550.19;5008738;28;20263;-78
2022/12/02 03:18:14;;;;;;;0.10;0.10;;;3.50;99.90;;;3.24;100.00;100545.78;5008299;28;20251;-78
2022/12/02 03:20:41;;;;;;;0.10;0.10;;;3.50;99.90;;;3.26;100.00;100546.75;5004751;28;20232;-78
2022/12/02 03:23:09;;;;;;;0.47;0.47;;;;;;;3.24;100.00;100543.19;5002169;28;20330;-78
2022/12/02 03:25:36;;;;;;;2.47;1.27;;;3.40;99.90;;;3.24;100.00;100537.06;5010155;28;20750;-78
2022/12/02 03:28:04;;;;;;;0.10;0.10;;;3.50;99.90;;;3.24;100.00;100534.44;5007346;28;20250;-78
2022/12/02 03:30:31;;;;;;;0.13;0.13;;;3.40;99.90;;;3.24;100.00;100532.72;5008811;28;20263;-78
2022/12/02 03:32:59;;;;;;;0.20;0.20;;;3.40;99.90;;;3.25;100.00;100533.63;5005063;28;20243;-78
2022/12/02 03:35:26;;;;;;;0.20;0.20;;;3.50;99.90;;;3.26;100.00;100532.78;5007998;28;20323;-78
2022/12/02 03:37:53;;;;;;;0.10;0.10;;;3.40;99.90;;;3.22;100.00;100537.91;5005738;28;20248;-78
2022/12/02 03:40:20;;;;;;;0.55;0.55;;;3.50;99.90;;;3.22;100.00;100527.44;5003100;28;20342;-78
2022/12/02 03:42:47;;;;;;;0.15;0.15;;;3.50;99.90;;;3.23;100.00;100533.56;5008779;28;20259;-77
2022/12/02 03:45:14;;;;;;;0.20;0.20;;;3.60;99.90;;;3.20;100.00;100522.97;5006578;28;20310;-78
2022/12/02 03:47:41;;;;;;;0.10;0.10;;;3.40;99.90;;;3.20;100.00;100525.59;5008216;28;20311;-78
2022/12/02 03:50:10;;;;;;;0.10;0.10;;;3.40;99.90;;;3.19;100.00;100518.59;5009309;28;20263;-78
2022/12/02 03:52:39;;;;;;;0.10;0.10;;;3.30;99.90;;;3.16;100.00;100516.75;5009891;28;20319;-78
2022/12/02 03:55:07;;;;;;;0.10;0.10;;;3.30;99.90;;;3.20;100.00;100515.16;5009298;28;20232;-78
2022/12/02 03:57:35;;;;;;;0.45;0.45;;;3.30;99.90;;;3.20;100.00;100521.25;5006525;28;20232;-78
2022/12/02 04:00:04;;;;;;;0.90;0.90;;;3.40;99.90;;;3.20;100.00;100516.03;5008811;28;20238;-78
2022/12/02 04:02:31;;;;;;;0.10;0.10;;;3.40;99.90;;;3.18;100.00;100509.84;5008415;28;20231;-78
2022/12/02 04:04:58;;;;;;;0.10;0.10;;;;;;;3.17;100.00;100508.06;5014198;28;20298;-78
2022/12/02 04:07:25;;;;;;;0.20;0.20;;;3.40;99.90;;;3.17;100.00;100510.69;5005320;28;20314;-78
2022/12/02 04:09:52;;;;;;;0.13;0.13;;;3.30;99.90;;;3.24;100.00;100517.03;5004833;28;20259;-78
2022/12/02 04:12:19;;;;;;;0.10;0.10;;;3.40;99.90;;;3.20;100.00;100513.41;5001530;28;20318;-78
2022/12/02 04:14:46;;;;;;;1.08;0.65;;;3.30;99.90;;;3.17;100.00;100507.19;5005698;28;20310;-78
2022/12/02 04:17:14;;;;;;;0.20;0.20;;;3.40;99.90;;;3.19;100.00;100505.53;5004294;28;20230;-78
2022/12/02 04:19:40;;;;;;;0.20;0.20;;;3.40;99.90;;;3.15;100.00;100495.78;5006335;28;20267;-78
2022/12/02 04:22:07;;;;;;;0.57;0.57;;;3.50;99.90;;;3.12;100.00;100493.94;5006269;28;20307;-78
2022/12/02 04:24:34;;;;;;;0.20;0.20;;;3.30;99.90;;;3.20;100.00;100500.34;4997343;28;20299;-78
2022/12/02 04:27:02;;;;;;;0.40;0.40;;;3.30;99.90;;;3.16;100.00;100495.84;5007067;28;20223;-78
2022/12/02 04:29:29;;;;;;;0.10;0.10;;;3.30;99.90;;;3.14;100.00;100488.78;5007834;28;20227;-78
2022/12/02 04:31:55;;;;;;;0.10;0.10;;;3.30;99.90;;;3.10;100.00;100479.03;5001080;28;20244;-78
2022/12/02 04:34:22;;;;;;;0.15;0.15;;;3.20;99.90;;;3.14;100.00;100484.44;5009391;28;20267;-78
2022/12/02 04:36:50;;;;;;;0.20;0.20;;;3.40;99.90;;;3.12;100.00;100487.81;5000298;28;20258;-78
2022/12/02 04:39:17;;;;;;;0.10;0.10;;;3.30;99.90;;;3.17;100.00;100486.28;5008091;28;20235;-78
2022/12/02 04:41:44;;;;;;;0.43;0.43;;;3.50;99.90;;;3.12;100.00;100477.38;5008035;28;20259;-78
2022/12/02 04:44:10;;;;;;;0.10;0.10;;;3.30;99.90;;;3.13;100.00;100487.88;5009230;28;20223;-78
2022/12/02 04:46:43;;;;;;;0.15;0.15;;;3.30;99.90;;;3.13;100.00;100489.59;5010411;28;20322;-78
2022/12/02 04:49:11;;;;;;;0.20;0.20;;;3.30;99.90;;;3.10;100.00;100484.25;5011798;28;20238;-79
2022/12/02 04:51:38;;;;;;;0.30;0.30;;;3.40;99.90;;;3.11;100.00;100481.69;5007046;28;20639;-78
2022/12/02 04:54:05;;;;;;;0.10;0.10;;;3.20;99.90;;;3.11;100.00;100481.69;5013130;28;20228;-78
2022/12/02 04:56:32;;;;;;;0.10;0.10;;;3.20;99.90;;;3.13;100.00;100479.16;5011145;28;20696;-78
2022/12/02 04:58:59;;;;;;;0.10;0.10;;;3.30;99.90;;;3.10;100.00;100484.25;5010269;28;20256;-78
2022/12/02 05:01:26;;;;;;;0.30;0.30;;;3.50;99.90;;;3.13;100.00;100479.16;5007770;28;20331;-78
2022/12/02 05:03:53;;;;;;;0.10;0.10;;;3.30;99.90;;;3.08;100.00;100481.59;5011580;28;20231;-78
2022/12/02 05:06:20;;;;;;;0.10;0.10;;;3.30;99.90;;;3.10;100.00;100479.91;5006283;28;20251;-78
2022/12/02 05:08:47;;;;;;;1.23;1.17;;;3.30;99.90;;;3.13;100.00;100482.66;5015253;28;20293;-79
2022/12/02 05:11:14;;;;;;;0.57;0.57;;;3.30;99.90;;;3.10;100.00;100481.63;5005781;28;20310;-79
2022/12/02 05:13:41;;;;;;;0.10;0.10;;;3.30;99.90;;;3.09;100.00;100466.78;5007074;28;20287;-78
2022/12/02 05:16:08;;;;;;;0.10;0.10;;;3.30;99.90;;;3.11;100.00;100479.09;5006597;28;20265;-78
2022/12/02 05:18:35;;;;;;;0.10;0.10;;;3.20;99.90;;;3.13;100.00;100474.81;5007974;28;20235;-78
2022/12/02 05:21:03;;;;;;;0.10;0.10;;;3.40;99.90;;;3.09;100.00;100466.78;5010863;28;20266;-78
2022/12/02 05:23:30;;;;;;;0.10;0.10;;;3.20;99.90;;;3.14;100.00;100478.31;5007110;28;20266;-78
2022/12/02 05:25:57;;;;;;;0.10;0.10;;;3.40;99.90;;;3.14;100.00;100475.69;5007298;28;20231;-78
2022/12/02 05:28:24;;;;;;;0.13;0.13;;;3.30;99.90;;;3.09;100.00;100470.28;5012678;28;20319;-78
2022/12/02 05:30:51;;;;;;;0.43;0.43;;;3.30;99.90;;;3.09;100.00;100472.91;5012002;28;20263;-78
2022/12/02 05:33:18;;;;;;;0.40;0.40;;;3.40;99.90;;;3.08;100.00;100471.13;5008639;28;20829;-78
2022/12/02 05:35:45;;;;;;;0.68;0.68;;;3.30;99.90;;;3.06;100.00;100462.34;5010463;28;20235;-78
2022/12/02 05:38:12;;;;;;;0.10;0.10;;;3.20;99.90;;;3.11;100.00;100466.03;5012000;28;20231;-78
2022/12/02 05:40:39;;;;;;;0.10;0.10;;;3.30;99.90;;;3.09;100.00;100459.84;5007007;28;20246;-79
2022/12/02 05:43:24;;;;;;;0.10;0.10;;;3.40;99.90;;;3.10;100.00;100465.97;5008682;28;20259;-78
2022/12/02 05:45:58;;;;;;;0.10;0.10;;;3.30;99.90;;;3.12;100.00;100464.31;5004950;28;20247;-79
2022/12/02 05:48:34;;;;;;;0.10;0.10;;;3.30;99.90;;;3.10;100.00;100460.75;5003346;28;20296;-78
2022/12/02 05:51:01;;;;;;;0.10;0.10;;;3.30;99.90;;;3.12;100.00;100470.41;5002407;28;20223;-78
2022/12/02 05:53:28;;;;;;;0.28;0.28;;;3.40;99.90;;;3.09;100.00;100467.69;5002882;28;20220;-78
2022/12/02 05:55:56;;;;;;;0.10;0.10;;;3.30;99.90;;;3.11;100.00;100462.53;5005600;28;20228;-78
2022/12/02 05:58:24;;;;;;;0.38;0.38;;;3.20;99.90;;;3.11;100.00;100459.91;5003889;28;20363;-79
2022/12/02 06:00:57;;;;;;;0.10;0.10;;;3.30;99.90;;;3.10;100.00;100459.03;5015428;28;20271;-78
2022/12/02 06:03:25;;;;;;;0.10;0.10;;;3.20;99.90;;;3.11;100.00;100463.41;5001190;28;20306;-79
2022/12/02 06:05:53;;;;;;;0.52;0.52;;;3.30;99.90;;;3.12;100.00;100464.31;5003987;28;20244;-79
2022/12/02 06:08:25;;;;;;;0.20;0.20;;;3.30;99.90;;;3.14;100.00;100466.16;5011110;28;20236;-78
2022/12/02 06:11:01;;;;;;;0.10;0.10;;;3.30;99.90;;;3.12;100.00;100466.91;5022953;28;20253;-79
2022/12/02 06:13:34;;;;;;;0.30;0.30;;;3.20;99.90;;;3.12;100.00;100466.91;5005656;28;20311;-78
2022/12/02 06:16:11;;;;;;;0.43;0.43;;;3.30;99.90;;;3.09;100.00;100462.47;4999136;28;20240;-78
2022/12/02 06:18:38;;;;;;;0.10;0.10;;;3.30;99.90;;;3.10;100.00;100458.13;5004636;28;20235;-79
2022/12/02 06:21:15;;;;;;;0.20;0.20;;;3.30;99.90;;;3.11;100.00;100465.13;5004077;28;20331;-78
2022/12/02 06:23:51;;;;;;;0.10;0.10;;;3.30;99.90;;;3.09;100.00;100457.22;5000875;28;20650;-78
2022/12/02 06:26:20;;;;;;;0.10;0.10;;;3.30;99.90;;;3.10;100.00;100459.03;5004150;28;20612;-78
2022/12/02 06:28:58;;;;;;;1.75;1.65;;;3.20;99.90;;;3.09;100.00;100462.47;4998828;28;20744;-78
2022/12/02 06:31:36;;;;;;;0.40;0.40;;;3.20;99.90;;;3.12;100.00;100456.47;5011711;28;20239;-78
2022/12/02 06:34:34;;;;;;;0.10;0.10;;;3.30;99.90;;;3.12;100.00;100459.97;5006456;28;20230;-79
2022/12/02 06:37:13;;;;;;;0.20;0.20;;;3.30;99.90;;;3.13;100.00;100463.47;5005946;28;20252;-78
2022/12/02 06:39:41;;;;;;;0.85;0.85;;;3.30;99.90;;;3.13;100.00;100460.84;5003339;28;20267;-80
2022/12/02 06:42:35;;;;;;;0.20;0.20;;;3.40;99.90;;;3.14;100.00;100460.03;4999484;28;20303;-80
2022/12/02 06:45:32;;;;;;;1.30;0.50;;;3.30;99.90;;;3.13;100.00;100455.63;5014978;28;20238;-78
2022/12/02 06:48:20;;;;;;;0.10;0.10;;;3.30;99.90;;;3.08;100.00;100457.19;5000635;28;20286;-79
2022/12/02 06:50:47;;;;;;;0.10;0.10;;;3.30;99.90;;;3.11;100.00;100459.91;4994307;28;20266;-79
2022/12/02 06:53:46;;;;;;;0.10;0.10;;;3.30;99.90;;;3.14;100.00;100454.81;5003667;28;20604;-79
2022/12/02 06:56:29;;;;;;;0.10;0.10;;;3.30;99.90;;;3.13;100.00;100463.47;4997654;28;20298;-78
2022/12/02 06:59:00;;;;;;;0.10;0.10;;;3.30;99.90;;;3.12;100.00;100459.06;5000798;28;20311;-78
2022/12/02 07:01:27;;;;;;;0.45;0.45;;;3.30;99.90;;;3.09;100.00;100452.00;4999805;28;20303;-78
2022/12/02 07:04:02;;;;;;;0.10;0.10;;;3.30;99.90;;;3.10;100.00;100456.41;5006808;28;20227;-78
2022/12/02 07:06:30;;;;;;;0.10;0.10;;;3.30;99.90;;;3.11;100.00;100458.19;5002204;28;20314;-78
2022/12/02 07:09:26;;;;;;;1.38;0.82;;;3.30;99.90;;;3.11;100.00;100460.81;5004681;28;20227;-78
2022/12/02 07:11:54;;;;;;;0.10;0.10;;;3.30;99.90;;;3.12;100.00;100464.31;5002175;28;20286;-79
2022/12/02 07:14:41;;;;;;;0.10;0.10;;;3.30;99.90;;;3.12;100.00;100465.19;5008154;28;20290;-79
2022/12/02 07:17:34;;;;;;;0.45;0.45;;;3.30;99.90;;;3.12;100.00;100470.41;4998188;28;20288;-79
2022/12/02 07:20:19;;;;;;;0.30;0.30;;;3.30;99.90;;;3.14;100.00;100471.38;5008930;28;20339;-79
2022/12/02 07:22:54;;;;;;;0.10;0.10;;;3.30;99.90;;;3.10;100.00;100465.97;5006929;28;20312;-81
2022/12/02 07:25:36;;;;;;;0.85;0.85;;;3.30;99.90;;;3.14;100.00;100473.97;5018517;28;20254;-80
2022/12/02 07:28:22;;;;;;;0.10;0.10;;;3.30;99.90;;;3.33;100.00;100490.38;5014507;28;20436;-81
2022/12/02 07:31:20;;;;;;;0.10;0.10;;;3.40;99.90;;;3.27;100.00;100474.47;5002621;28;20259;-79
2022/12/02 07:33:47;;;;;;;0.35;0.35;;;3.40;99.90;;;3.18;100.00;100468.03;5001325;28;20680;-79
2022/12/02 07:36:14;;;;;;;0.10;0.10;;;3.30;99.90;;;3.16;100.00;100466.22;5008743;28;20255;-79
2022/12/02 07:38:42;;;;;;;0.25;0.25;;;3.30;99.90;;;3.13;100.00;100460.84;5003082;28;20329;-82
2022/12/02 07:41:29;;;;;;;0.30;0.30;;;3.30;99.90;;;3.14;100.00;100465.25;4992248;28;20243;-82
2022/12/02 07:44:03;;;;;;;0.13;0.13;;;3.50;99.90;;;3.16;100.00;100472.31;4984377;28;20302;-83
2022/12/02 07:46:30;;;;;;;0.10;0.10;;;3.30;99.90;;;3.15;100.00;100475.75;5003605;28;20259;-79
2022/12/02 07:48:57;;;;;;;0.10;0.10;;;3.30;99.90;;;3.14;100.00;100471.38;5002968;28;20323;-79
2022/12/02 07:51:25;;;;;;;0.10;0.10;;;3.30;99.90;;;3.14;100.00;100478.31;4987066;28;20267;-79
2022/12/02 07:53:52;;;;;;;0.10;0.10;;;3.30;99.90;;;3.15;100.00;100472.25;4998864;28;20236;-81
2022/12/02 07:56:19;;;;;;;0.45;0.45;;;3.40;99.90;;;3.15;100.00;100472.25;4994432;28;20292;-79
2022/12/02 07:58:46;;;;;;;0.10;0.10;;;3.30;99.90;;;3.19;100.00;100471.56;4992162;28;20232;-82
2022/12/02 08:01:33;;;;;;;0.10;0.10;;;3.50;99.90;;;3.20;100.00;100478.56;4997661;28;20231;-81
2022/12/02 08:04:00;;;;;;;0.10;0.10;;;3.30;99.90;;;3.18;100.00;100480.22;5001791;28;20238;-82
2022/12/02 08:06:27;;;;;;;0.10;0.10;;;3.40;99.90;;;3.20;100.00;100487.28;5005563;28;20306;-81
2022/12/02 08:08:57;;;;;;;0.10;0.10;;;3.30;99.90;;;3.21;100.00;100491.69;5004720;28;20235;-79
2022/12/02 08:13:59;;;;;;;0.10;0.10;;;3.40;99.90;;;3.23;100.00;100481.28;4982051;28;20234;-74
2022/12/02 08:16:26;;;;;;;0.10;0.10;;;3.40;99.90;;;3.21;100.00;100473.38;5016989;28;20231;-73
2022/12/02 08:18:53;;;;;;;0.10;0.10;;;3.50;99.90;;;3.23;100.00;100478.69;5006456;28;20243;-75
2022/12/02 08:21:20;;;;;;;0.10;0.10;;;3.50;99.90;;;3.20;100.00;100471.59;5006598;28;20231;-76
2022/12/02 08:23:47;;;;;;;0.10;0.10;;;3.40;99.90;;;3.22;100.00;100469.94;5004158;28;20315;-75
2022/12/02 08:26:15;;;;;;;0.10;0.10;;;3.40;99.90;;;3.21;100.00;100469.88;5008008;28;20261;-74
2022/12/02 08:28:42;;;;;;;0.10;0.10;;;3.40;99.90;;;3.22;100.00;100464.72;5009098;28;20250;-74
2022/12/02 08:31:09;;;;;;;0.10;0.10;;;3.40;99.90;;;3.22;100.00;100462.09;5008826;28;20291;-73
2022/12/02 08:33:36;;;;;;;0.10;0.10;;;3.40;99.90;;;3.22;100.00;100459.50;5009746;28;20247;-73
2022/12/02 08:36:03;;;;;;;0.10;0.10;;;3.40;99.90;;;3.26;100.00;100462.22;5005271;28;20234;-73
2022/12/02 08:38:31;;;;;;;0.10;0.10;;;3.40;99.90;;;3.24;100.00;100456.94;4999435;28;20774;-73
2022/12/02 08:40:58;;;;;;;0.10;0.10;;;3.40;99.90;;;3.27;100.00;100462.28;4992760;28;20259;-73
2022/12/02 08:43:25;;;;;;;0.43;0.43;;;3.40;99.90;;;3.27;100.00;100458.78;5007850;28;20263;-73
2022/12/02 08:45:52;;;;;;;0.10;0.10;;;3.40;99.90;;;3.27;100.00;100456.16;4998645;28;20287;-74
2022/12/02 08:48:19;;;;;;;0.20;0.20;;;3.40;99.90;;;3.28;100.00;100451.00;5003575;28;20235;-76
2022/12/02 08:50:46;;;;;;;0.10;0.10;;;3.50;99.90;;;3.22;100.00;100435.97;4997786;28;20359;-75
2022/12/02 08:53:13;;;;;;;0.10;0.10;;;3.40;99.90;;;3.24;100.00;100445.59;5005810;28;20600;-75
2022/12/02 08:55:41;;;;;;;0.10;0.10;;;3.40;99.90;;;3.27;100.00;100443.09;5012915;28;20227;-72
2022/12/02 08:58:08;;;;;;;1.65;0.73;;;3.50;99.90;;;3.26;100.00;100438.69;5003290;28;20232;-75
2022/12/02 09:00:35;;;;;;;0.10;0.10;;;3.50;99.90;;;3.28;100.00;100437.03;5001460;28;20227;-74
2022/12/02 09:03:08;;;;;;;0.17;0.17;;;3.40;99.90;;;3.29;100.00;100444.06;5006843;28;20286;-75
2022/12/02 09:05:37;;;;;;;0.10;0.10;;;3.50;99.90;;;3.29;100.00;100442.31;4982915;28;20240;-74
2022/12/02 09:08:05;;;;;;;0.65;0.65;;;3.50;99.90;;;3.27;100.00;100430.03;5005616;28;20231;-74
2022/12/02 09:10:32;;;;;;;0.20;0.20;;;3.50;99.90;;;3.34;100.00;100442.50;4995086;28;20781;-75
2022/12/02 09:13:00;;;;;;;0.10;0.10;;;3.50;99.90;;;3.30;100.00;100430.16;5000060;28;20627;-75
2022/12/02 09:15:27;;;;;;;0.10;0.10;;;3.50;99.90;;;3.28;100.00;100431.81;4990513;28;20295;-75
2022/12/02 09:17:54;;;;;;;0.25;0.25;;;3.50;99.90;;;3.35;100.00;100441.66;5006386;28;20247;-75
2022/12/02 09:20:21;;;;;;;0.10;0.10;;;3.50;99.90;;;3.37;100.00;100443.50;4991082;28;20307;-75
2022/12/02 09:22:48;;;;;;;0.03;0.03;;;3.50;99.90;;;3.30;100.00;100436.25;5011157;28;20232;-74
2022/12/02 09:25:15;;;;;;;0.10;0.10;;;3.50;99.90;;;3.37;100.00;100447.84;4997874;28;20231;-75
2022/12/02 09:27:43;;;;;;;0.30;0.30;;;3.50;99.90;;;3.29;100.00;100447.56;5008293;28;20306;-75
2022/12/02 09:30:10;;;;;;;0.10;0.10;;;3.50;99.90;;;3.27;100.00;100444.00;5001633;28;20232;-75
2022/12/02 09:32:40;;;;;;;0.10;0.10;;;3.50;99.90;;;3.29;100.00;100438.81;5006420;28;20330;-75
2022/12/02 09:35:08;;;;;;;0.17;0.17;;;3.50;99.90;;;3.31;100.00;100445.00;5008620;28;20287;-76
2022/12/02 09:37:38;;;;;;;0.10;0.10;;;3.50;99.90;;;3.29;100.00;100430.97;5007994;28;20239;-75
2022/12/02 09:40:07;;;;;;;0.10;0.10;;;3.40;99.90;;;3.30;100.00;100436.25;5005372;28;20753;-75
2022/12/02 09:42:34;;;;;;;0.10;0.10;;;3.50;99.90;;;3.32;100.00;100441.56;5002144;28;20259;-75
2022/12/02 09:45:03;;;;;;;0.03;0.03;;;3.50;99.90;;;3.27;100.00;100430.03;5007820;28;20334;-76
2022/12/02 09:47:30;;;;;;;0.20;0.20;;;3.50;99.90;;;3.37;100.00;100446.13;4998870;28;20232;-75
2022/12/02 09:49:58;;;;;;;0.00;0.00;;;3.50;99.90;;;3.36;100.00;100443.44;5004955;28;20312;-75
2022/12/02 09:52:26;;;;;;;0.30;0.30;;;3.50;99.90;;;3.36;100.00;100446.06;5001351;28;20291;-75
2022/12/02 09:54:56;;;;;;;0.28;0.28;;;3.50;99.90;;;3.35;100.00;100444.28;5016757;28;20263;-74
2022/12/02 09:57:31;;;;;;;0.10;0.10;;;3.50;99.90;;;3.33;100.00;100452.06;5005356;28;20247;-74
2022/12/02 10:00:17;;;;;;;0.43;0.43;;;3.50;99.90;;;3.24;100.00;100435.13;5002473;28;20232;-74
2022/12/02 10:02:50;;;;;;;0.10;0.10;;;3.40;99.90;;;3.27;100.00;100440.47;5012185;28;20239;-74
2022/12/02 10:05:20;;;;;;;0.15;0.15;;;3.50;99.90;;;3.20;100.00;100431.53;5009284;28;20250;-74
2022/12/02 10:07:49;;;;;;;0.10;0.10;;;3.50;99.90;;;3.24;100.00;100441.25;5021257;28;20365;-75
2022/12/02 10:10:24;;;;;;;0.10;0.10;;;3.40;99.90;;;3.20;100.00;100436.75;5006836;28;20260;-75
2022/12/02 10:12:53;;;;;;;0.40;0.40;;;3.30;99.90;;;3.26;100.00;100444.81;5003608;28;20247;-75
2022/12/02 10:15:25;;;;;;;0.10;0.10;;;3.40;99.90;;;3.27;100.00;100454.44;5003664;28;20311;-75
2022/12/02 10:17:53;;;;;;;0.10;0.10;;;3.40;99.90;;;3.26;100.00;100460.50;5005004;28;20286;-77
2022/12/02 10:20:24;;;;;;;0.10;0.10;;;3.40;99.90;;;3.25;100.00;100457.81;5004428;28;20219;-77
2022/12/02 10:23:24;;;;;;;0.10;0.10;;;3.40;99.90;;;3.24;100.00;100467.38;5005304;28;20271;-77
2022/12/02 10:26:06;;;;;;;0.10;0.10;;;3.40;99.90;;;3.20;100.00;100474.22;5010140;28;20307;-77
2022/12/02 10:28:36;;;;;;;0.20;0.20;;;3.40;99.90;;;3.20;100.00;100478.56;5016109;28;20259;-74
2022/12/02 10:31:12;;;;;;;0.10;0.10;;;3.40;99.90;;;3.18;100.00;100478.50;5005878;28;20236;-73
2022/12/02 10:33:52;;;;;;;0.10;0.10;;;3.30;99.90;;;3.23;100.00;100481.28;5003645;28;20236;-74
2022/12/02 10:36:36;;;;;;;0.10;0.10;;;3.40;99.90;;;3.20;100.00;100484.69;5016084;28;20633;-76
2022/12/02 10:39:24;;;;;;;0.03;0.03;;;3.30;99.90;;;3.17;100.00;100488.88;5003551;28;20239;-76
2022/12/02 10:42:03;;;;;;;0.22;0.22;;;3.40;99.90;;;3.25;100.00;100492.69;4986089;28;20232;-77